sensor_id;sensor_type;location;lat;lon;timestamp;P1;durP1;ratioP1;P2;durP2;ratioP2
31537;SDS011;18147;51.952;6.146;2022-12-10T00:00:32;102.28;;;35.17;;
31537;SDS011;18147;51.952;6.146;2022-12-10T00:02:57;112.90;;;39.30;;
31537;SDS011;18147;51.952;6.146;2022-12-10T00:05:23;104.18;;;38.17;;
31537;SDS011;18147;51.952;6.146;2022-12-10T00:07:49;113.25;;;40.65;;
31537;SDS011;18147;51.952;6.146;2022-12-10T00:10:14;105.63;;;36.90;;
31537;SDS011;18147;51.952;6.146;2022-12-10T00:12:39;105.82;;;35.95;;
31537;SDS011;18147;51.952;6.146;2022-12-10T00:15:05;103.15;;;35.20;;
31537;SDS011;18147;51.952;6.146;2022-12-10T00:17:31;98.25;;;34.40;;
31537;SDS011;18147;51.952;6.146;2022-12-10T00:19:56;115.78;;;38.03;;
31537;SDS011;18147;51.952;6.146;2022-12-10T00:22:22;106.95;;;37.00;;
31537;SDS011;18147;51.952;6.146;2022-12-10T00:24:47;108.90;;;41.88;;
31537;SDS011;18147;51.952;6.146;2022-12-10T00:27:13;113.38;;;38.28;;
31537;SDS011;18147;51.952;6.146;2022-12-10T00:29:39;92.25;;;36.38;;
31537;SDS011;18147;51.952;6.146;2022-12-10T00:32:04;100.05;;;35.40;;
31537;SDS011;18147;51.952;6.146;2022-12-10T00:34:31;112.65;;;36.70;;
31537;SDS011;18147;51.952;6.146;2022-12-10T00:36:56;116.78;;;37.97;;
31537;SDS011;18147;51.952;6.146;2022-12-10T00:39:22;111.20;;;35.58;;
31537;SDS011;18147;51.952;6.146;2022-12-10T00:41:48;105.95;;;34.72;;
31537;SDS011;18147;51.952;6.146;2022-12-10T00:44:14;99.82;;;32.60;;
31537;SDS011;18147;51.952;6.146;2022-12-10T00:46:40;101.20;;;34.63;;
31537;SDS011;18147;51.952;6.146;2022-12-10T00:49:07;116.40;;;36.40;;
31537;SDS011;18147;51.952;6.146;2022-12-10T00:51:33;108.53;;;35.13;;
31537;SDS011;18147;51.952;6.146;2022-12-10T00:53:58;104.32;;;35.75;;
31537;SDS011;18147;51.952;6.146;2022-12-10T00:56:25;101.10;;;34.47;;
31537;SDS011;18147;51.952;6.146;2022-12-10T00:58:53;104.75;;;34.53;;
31537;SDS011;18147;51.952;6.146;2022-12-10T01:01:26;100.45;;;34.95;;
31537;SDS011;18147;51.952;6.146;2022-12-10T01:03:59;103.90;;;34.88;;
31537;SDS011;18147;51.952;6.146;2022-12-10T01:06:30;107.03;;;35.85;;
31537;SDS011;18147;51.952;6.146;2022-12-10T01:09:02;105.57;;;36.50;;
31537;SDS011;18147;51.952;6.146;2022-12-10T01:11:31;105.07;;;34.13;;
31537;SDS011;18147;51.952;6.146;2022-12-10T01:13:58;103.40;;;35.50;;
31537;SDS011;18147;51.952;6.146;2022-12-10T01:16:24;106.90;;;34.88;;
31537;SDS011;18147;51.952;6.146;2022-12-10T01:18:54;105.65;;;35.13;;
31537;SDS011;18147;51.952;6.146;2022-12-10T01:21:23;106.20;;;36.58;;
31537;SDS011;18147;51.952;6.146;2022-12-10T01:23:50;104.13;;;35.83;;
31537;SDS011;18147;51.952;6.146;2022-12-10T01:26:18;99.55;;;33.33;;
31537;SDS011;18147;51.952;6.146;2022-12-10T01:28:46;113.30;;;36.13;;
31537;SDS011;18147;51.952;6.146;2022-12-10T01:31:15;104.18;;;35.10;;
31537;SDS011;18147;51.952;6.146;2022-12-10T01:33:46;97.57;;;33.40;;
31537;SDS011;18147;51.952;6.146;2022-12-10T01:36:16;106.18;;;33.50;;
31537;SDS011;18147;51.952;6.146;2022-12-10T01:38:49;96.07;;;33.42;;
31537;SDS011;18147;51.952;6.146;2022-12-10T01:41:16;105.03;;;32.20;;
31537;SDS011;18147;51.952;6.146;2022-12-10T01:43:51;103.43;;;35.00;;
31537;SDS011;18147;51.952;6.146;2022-12-10T01:46:23;95.65;;;32.55;;
31537;SDS011;18147;51.952;6.146;2022-12-10T01:48:55;98.95;;;33.33;;
31537;SDS011;18147;51.952;6.146;2022-12-10T01:51:22;105.70;;;33.30;;
31537;SDS011;18147;51.952;6.146;2022-12-10T01:53:49;108.35;;;34.67;;
31537;SDS011;18147;51.952;6.146;2022-12-10T01:56:16;108.07;;;33.90;;
31537;SDS011;18147;51.952;6.146;2022-12-10T01:58:43;115.97;;;35.70;;
31537;SDS011;18147;51.952;6.146;2022-12-10T02:01:23;117.85;;;37.33;;
31537;SDS011;18147;51.952;6.146;2022-12-10T02:06:29;92.95;;;34.10;;
31537;SDS011;18147;51.952;6.146;2022-12-10T02:11:58;107.43;;;35.63;;
31537;SDS011;18147;51.952;6.146;2022-12-10T02:17:16;111.85;;;35.25;;
31537;SDS011;18147;51.952;6.146;2022-12-10T02:22:19;107.43;;;35.58;;
31537;SDS011;18147;51.952;6.146;2022-12-10T02:24:48;100.97;;;33.88;;
31537;SDS011;18147;51.952;6.146;2022-12-10T02:30:29;97.10;;;33.83;;
31537;SDS011;18147;51.952;6.146;2022-12-10T02:32:56;102.65;;;32.95;;
31537;SDS011;18147;51.952;6.146;2022-12-10T02:35:26;108.90;;;34.50;;
31537;SDS011;18147;51.952;6.146;2022-12-10T02:37:57;104.20;;;34.42;;
31537;SDS011;18147;51.952;6.146;2022-12-10T02:40:32;108.93;;;34.17;;
31537;SDS011;18147;51.952;6.146;2022-12-10T02:43:04;105.30;;;35.15;;
31537;SDS011;18147;51.952;6.146;2022-12-10T02:45:32;113.72;;;35.58;;
31537;SDS011;18147;51.952;6.146;2022-12-10T02:48:00;104.88;;;34.10;;
31537;SDS011;18147;51.952;6.146;2022-12-10T02:50:33;111.63;;;34.85;;
31537;SDS011;18147;51.952;6.146;2022-12-10T02:53:01;110.88;;;36.50;;
31537;SDS011;18147;51.952;6.146;2022-12-10T02:55:27;117.00;;;37.20;;
31537;SDS011;18147;51.952;6.146;2022-12-10T03:00:52;100.30;;;35.20;;
31537;SDS011;18147;51.952;6.146;2022-12-10T03:03:38;115.05;;;34.38;;
31537;SDS011;18147;51.952;6.146;2022-12-10T03:06:18;113.07;;;34.45;;
31537;SDS011;18147;51.952;6.146;2022-12-10T03:08:53;103.90;;;32.90;;
31537;SDS011;18147;51.952;6.146;2022-12-10T03:11:26;126.32;;;37.53;;
31537;SDS011;18147;51.952;6.146;2022-12-10T03:16:30;115.22;;;35.70;;
31537;SDS011;18147;51.952;6.146;2022-12-10T03:19:01;105.78;;;33.17;;
31537;SDS011;18147;51.952;6.146;2022-12-10T03:21:34;99.53;;;33.22;;
31537;SDS011;18147;51.952;6.146;2022-12-10T03:24:06;110.30;;;36.70;;
31537;SDS011;18147;51.952;6.146;2022-12-10T03:26:34;109.07;;;34.25;;
31537;SDS011;18147;51.952;6.146;2022-12-10T03:29:03;98.93;;;33.33;;
31537;SDS011;18147;51.952;6.146;2022-12-10T03:31:31;107.13;;;34.58;;
31537;SDS011;18147;51.952;6.146;2022-12-10T03:33:59;108.70;;;35.30;;
31537;SDS011;18147;51.952;6.146;2022-12-10T03:36:26;126.32;;;36.30;;
31537;SDS011;18147;51.952;6.146;2022-12-10T03:38:53;114.50;;;36.60;;
31537;SDS011;18147;51.952;6.146;2022-12-10T03:41:19;106.72;;;35.42;;
31537;SDS011;18147;51.952;6.146;2022-12-10T03:43:51;114.00;;;36.13;;
31537;SDS011;18147;51.952;6.146;2022-12-10T03:46:19;115.60;;;35.63;;
31537;SDS011;18147;51.952;6.146;2022-12-10T03:48:44;123.40;;;36.42;;
31537;SDS011;18147;51.952;6.146;2022-12-10T03:51:10;126.18;;;36.13;;
31537;SDS011;18147;51.952;6.146;2022-12-10T03:53:35;107.22;;;36.30;;
31537;SDS011;18147;51.952;6.146;2022-12-10T03:56:01;110.38;;;34.95;;
31537;SDS011;18147;51.952;6.146;2022-12-10T03:58:26;112.10;;;36.83;;
31537;SDS011;18147;51.952;6.146;2022-12-10T04:00:52;112.28;;;36.95;;
31537;SDS011;18147;51.952;6.146;2022-12-10T04:03:17;117.90;;;38.55;;
31537;SDS011;18147;51.952;6.146;2022-12-10T04:05:42;115.50;;;38.35;;
31537;SDS011;18147;51.952;6.146;2022-12-10T04:08:08;116.95;;;35.50;;
31537;SDS011;18147;51.952;6.146;2022-12-10T04:10:37;107.80;;;35.65;;
31537;SDS011;18147;51.952;6.146;2022-12-10T04:13:03;118.70;;;37.75;;
31537;SDS011;18147;51.952;6.146;2022-12-10T04:15:48;118.72;;;39.17;;
31537;SDS011;18147;51.952;6.146;2022-12-10T04:18:32;129.95;;;37.63;;
31537;SDS011;18147;51.952;6.146;2022-12-10T04:20:58;107.57;;;36.88;;
31537;SDS011;18147;51.952;6.146;2022-12-10T04:23:42;121.40;;;37.65;;
31537;SDS011;18147;51.952;6.146;2022-12-10T04:26:26;107.40;;;34.55;;
31537;SDS011;18147;51.952;6.146;2022-12-10T04:29:10;121.95;;;38.65;;
31537;SDS011;18147;51.952;6.146;2022-12-10T04:31:36;127.82;;;36.47;;
31537;SDS011;18147;51.952;6.146;2022-12-10T04:34:01;111.05;;;35.70;;
31537;SDS011;18147;51.952;6.146;2022-12-10T04:36:27;129.35;;;39.47;;
31537;SDS011;18147;51.952;6.146;2022-12-10T04:38:52;109.90;;;36.00;;
31537;SDS011;18147;51.952;6.146;2022-12-10T04:41:18;119.80;;;35.72;;
31537;SDS011;18147;51.952;6.146;2022-12-10T04:43:43;110.82;;;36.25;;
31537;SDS011;18147;51.952;6.146;2022-12-10T04:46:09;109.45;;;35.58;;
31537;SDS011;18147;51.952;6.146;2022-12-10T04:48:35;112.88;;;37.33;;
31537;SDS011;18147;51.952;6.146;2022-12-10T04:51:01;130.10;;;37.97;;
31537;SDS011;18147;51.952;6.146;2022-12-10T04:53:27;119.60;;;36.13;;
31537;SDS011;18147;51.952;6.146;2022-12-10T04:55:52;122.65;;;35.45;;
31537;SDS011;18147;51.952;6.146;2022-12-10T04:58:19;130.32;;;39.53;;
31537;SDS011;18147;51.952;6.146;2022-12-10T05:00:44;120.93;;;39.15;;
31537;SDS011;18147;51.952;6.146;2022-12-10T05:03:10;129.52;;;39.85;;
31537;SDS011;18147;51.952;6.146;2022-12-10T05:05:35;130.90;;;38.63;;
31537;SDS011;18147;51.952;6.146;2022-12-10T05:08:01;127.70;;;37.78;;
31537;SDS011;18147;51.952;6.146;2022-12-10T05:10:27;124.97;;;39.80;;
31537;SDS011;18147;51.952;6.146;2022-12-10T05:12:52;125.30;;;39.15;;
31537;SDS011;18147;51.952;6.146;2022-12-10T05:15:18;121.97;;;40.83;;
31537;SDS011;18147;51.952;6.146;2022-12-10T05:17:43;120.45;;;36.85;;
31537;SDS011;18147;51.952;6.146;2022-12-10T05:20:09;118.85;;;37.92;;
31537;SDS011;18147;51.952;6.146;2022-12-10T05:22:35;121.07;;;39.72;;
31537;SDS011;18147;51.952;6.146;2022-12-10T05:25:19;129.10;;;41.03;;
31537;SDS011;18147;51.952;6.146;2022-12-10T05:27:45;144.63;;;42.90;;
31537;SDS011;18147;51.952;6.146;2022-12-10T05:30:10;131.02;;;40.20;;
31537;SDS011;18147;51.952;6.146;2022-12-10T05:32:36;140.95;;;42.50;;
31537;SDS011;18147;51.952;6.146;2022-12-10T05:35:02;129.55;;;40.50;;
31537;SDS011;18147;51.952;6.146;2022-12-10T05:37:29;130.95;;;42.60;;
31537;SDS011;18147;51.952;6.146;2022-12-10T05:39:55;139.82;;;41.92;;
31537;SDS011;18147;51.952;6.146;2022-12-10T05:42:21;123.35;;;38.35;;
31537;SDS011;18147;51.952;6.146;2022-12-10T05:44:46;122.70;;;39.72;;
31537;SDS011;18147;51.952;6.146;2022-12-10T05:47:14;130.93;;;41.55;;
31537;SDS011;18147;51.952;6.146;2022-12-10T05:49:39;128.23;;;41.08;;
31537;SDS011;18147;51.952;6.146;2022-12-10T05:52:05;121.07;;;40.20;;
31537;SDS011;18147;51.952;6.146;2022-12-10T05:54:30;136.93;;;42.53;;
31537;SDS011;18147;51.952;6.146;2022-12-10T05:56:55;138.60;;;40.65;;
31537;SDS011;18147;51.952;6.146;2022-12-10T05:59:24;144.73;;;43.08;;
31537;SDS011;18147;51.952;6.146;2022-12-10T06:01:49;154.32;;;45.97;;
31537;SDS011;18147;51.952;6.146;2022-12-10T06:04:15;166.88;;;47.55;;
31537;SDS011;18147;51.952;6.146;2022-12-10T06:06:41;188.68;;;51.00;;
31537;SDS011;18147;51.952;6.146;2022-12-10T06:09:07;182.82;;;51.30;;
31537;SDS011;18147;51.952;6.146;2022-12-10T06:11:36;193.07;;;52.30;;
31537;SDS011;18147;51.952;6.146;2022-12-10T06:14:02;223.90;;;58.22;;
31537;SDS011;18147;51.952;6.146;2022-12-10T06:16:27;231.13;;;60.50;;
31537;SDS011;18147;51.952;6.146;2022-12-10T06:18:53;287.27;;;61.53;;
31537;SDS011;18147;51.952;6.146;2022-12-10T06:21:20;243.75;;;57.28;;
31537;SDS011;18147;51.952;6.146;2022-12-10T06:23:49;280.45;;;58.88;;
31537;SDS011;18147;51.952;6.146;2022-12-10T06:26:25;243.10;;;60.50;;
31537;SDS011;18147;51.952;6.146;2022-12-10T06:28:51;268.60;;;62.65;;
31537;SDS011;18147;51.952;6.146;2022-12-10T06:31:17;263.20;;;60.53;;
31537;SDS011;18147;51.952;6.146;2022-12-10T06:33:43;252.55;;;59.45;;
31537;SDS011;18147;51.952;6.146;2022-12-10T06:36:09;292.73;;;65.35;;
31537;SDS011;18147;51.952;6.146;2022-12-10T06:38:36;231.13;;;58.22;;
31537;SDS011;18147;51.952;6.146;2022-12-10T06:41:06;250.95;;;58.22;;
31537;SDS011;18147;51.952;6.146;2022-12-10T06:43:34;295.38;;;58.97;;
31537;SDS011;18147;51.952;6.146;2022-12-10T06:46:04;308.65;;;61.30;;
31537;SDS011;18147;51.952;6.146;2022-12-10T06:48:33;284.40;;;58.45;;
31537;SDS011;18147;51.952;6.146;2022-12-10T06:50:59;309.05;;;59.22;;
31537;SDS011;18147;51.952;6.146;2022-12-10T06:53:25;232.82;;;53.17;;
31537;SDS011;18147;51.952;6.146;2022-12-10T06:55:50;297.15;;;61.88;;
31537;SDS011;18147;51.952;6.146;2022-12-10T06:58:16;244.13;;;58.95;;
31537;SDS011;18147;51.952;6.146;2022-12-10T07:00:44;249.88;;;58.17;;
31537;SDS011;18147;51.952;6.146;2022-12-10T07:03:09;393.02;;;74.53;;
31537;SDS011;18147;51.952;6.146;2022-12-10T07:05:35;298.17;;;61.30;;
31537;SDS011;18147;51.952;6.146;2022-12-10T07:08:00;242.27;;;64.72;;
31537;SDS011;18147;51.952;6.146;2022-12-10T07:10:26;259.13;;;60.75;;
31537;SDS011;18147;51.952;6.146;2022-12-10T07:12:51;261.63;;;60.03;;
31537;SDS011;18147;51.952;6.146;2022-12-10T07:15:16;250.38;;;60.97;;
31537;SDS011;18147;51.952;6.146;2022-12-10T07:17:42;259.13;;;62.15;;
31537;SDS011;18147;51.952;6.146;2022-12-10T07:20:07;293.88;;;59.22;;
31537;SDS011;18147;51.952;6.146;2022-12-10T07:22:43;314.20;;;60.60;;
31537;SDS011;18147;51.952;6.146;2022-12-10T07:25:08;273.50;;;58.10;;
31537;SDS011;18147;51.952;6.146;2022-12-10T07:27:33;250.18;;;58.80;;
31537;SDS011;18147;51.952;6.146;2022-12-10T07:29:59;317.13;;;64.53;;
31537;SDS011;18147;51.952;6.146;2022-12-10T07:32:26;274.45;;;60.65;;
31537;SDS011;18147;51.952;6.146;2022-12-10T07:34:52;257.30;;;57.63;;
31537;SDS011;18147;51.952;6.146;2022-12-10T07:37:18;238.60;;;57.53;;
31537;SDS011;18147;51.952;6.146;2022-12-10T07:39:43;203.05;;;57.50;;
31537;SDS011;18147;51.952;6.146;2022-12-10T07:42:09;250.95;;;54.22;;
31537;SDS011;18147;51.952;6.146;2022-12-10T07:44:37;238.85;;;54.53;;
31537;SDS011;18147;51.952;6.146;2022-12-10T07:47:05;268.67;;;55.85;;
31537;SDS011;18147;51.952;6.146;2022-12-10T07:49:30;207.40;;;55.38;;
31537;SDS011;18147;51.952;6.146;2022-12-10T07:51:55;219.90;;;54.97;;
31537;SDS011;18147;51.952;6.146;2022-12-10T07:54:21;237.80;;;52.88;;
31537;SDS011;18147;51.952;6.146;2022-12-10T07:56:46;214.73;;;52.10;;
31537;SDS011;18147;51.952;6.146;2022-12-10T07:59:12;257.15;;;56.42;;
31537;SDS011;18147;51.952;6.146;2022-12-10T08:01:38;207.15;;;51.63;;
31537;SDS011;18147;51.952;6.146;2022-12-10T08:04:03;224.80;;;54.70;;
31537;SDS011;18147;51.952;6.146;2022-12-10T08:06:29;213.18;;;52.85;;
31537;SDS011;18147;51.952;6.146;2022-12-10T08:08:55;258.70;;;55.72;;
31537;SDS011;18147;51.952;6.146;2022-12-10T08:11:22;230.43;;;54.75;;
31537;SDS011;18147;51.952;6.146;2022-12-10T08:13:48;252.13;;;53.05;;
31537;SDS011;18147;51.952;6.146;2022-12-10T08:16:18;205.45;;;50.38;;
31537;SDS011;18147;51.952;6.146;2022-12-10T08:18:45;218.57;;;51.22;;
31537;SDS011;18147;51.952;6.146;2022-12-10T08:21:12;202.63;;;50.45;;
31537;SDS011;18147;51.952;6.146;2022-12-10T08:23:39;223.52;;;51.90;;
31537;SDS011;18147;51.952;6.146;2022-12-10T08:26:09;314.20;;;56.17;;
31537;SDS011;18147;51.952;6.146;2022-12-10T08:28:36;251.93;;;52.67;;
31537;SDS011;18147;51.952;6.146;2022-12-10T08:31:02;222.25;;;46.40;;
31537;SDS011;18147;51.952;6.146;2022-12-10T08:33:28;241.32;;;48.50;;
31537;SDS011;18147;51.952;6.146;2022-12-10T08:35:57;234.20;;;53.00;;
31537;SDS011;18147;51.952;6.146;2022-12-10T08:38:29;275.27;;;58.08;;
31537;SDS011;18147;51.952;6.146;2022-12-10T08:40:55;238.85;;;53.80;;
31537;SDS011;18147;51.952;6.146;2022-12-10T08:43:24;269.92;;;56.35;;
31537;SDS011;18147;51.952;6.146;2022-12-10T08:45:52;175.00;;;39.80;;
31537;SDS011;18147;51.952;6.146;2022-12-10T08:48:19;262.85;;;52.22;;
31537;SDS011;18147;51.952;6.146;2022-12-10T08:50:44;246.90;;;50.95;;
31537;SDS011;18147;51.952;6.146;2022-12-10T08:53:10;229.00;;;50.75;;
31537;SDS011;18147;51.952;6.146;2022-12-10T08:55:39;226.18;;;51.67;;
31537;SDS011;18147;51.952;6.146;2022-12-10T08:58:05;249.82;;;52.50;;
31537;SDS011;18147;51.952;6.146;2022-12-10T09:00:30;252.10;;;54.65;;
31537;SDS011;18147;51.952;6.146;2022-12-10T09:02:56;230.00;;;53.30;;
31537;SDS011;18147;51.952;6.146;2022-12-10T09:05:22;270.40;;;55.22;;
31537;SDS011;18147;51.952;6.146;2022-12-10T09:07:47;221.85;;;52.53;;
31537;SDS011;18147;51.952;6.146;2022-12-10T09:10:13;253.90;;;55.75;;
31537;SDS011;18147;51.952;6.146;2022-12-10T09:12:38;233.05;;;51.90;;
31537;SDS011;18147;51.952;6.146;2022-12-10T09:15:05;254.68;;;54.47;;
31537;SDS011;18147;51.952;6.146;2022-12-10T09:17:31;252.65;;;54.25;;
31537;SDS011;18147;51.952;6.146;2022-12-10T09:19:56;266.98;;;55.42;;
31537;SDS011;18147;51.952;6.146;2022-12-10T09:22:22;235.60;;;54.20;;
31537;SDS011;18147;51.952;6.146;2022-12-10T09:24:47;256.48;;;55.10;;
31537;SDS011;18147;51.952;6.146;2022-12-10T09:27:12;303.55;;;59.33;;
31537;SDS011;18147;51.952;6.146;2022-12-10T09:29:38;285.25;;;61.28;;
31537;SDS011;18147;51.952;6.146;2022-12-10T09:32:04;262.85;;;57.80;;
31537;SDS011;18147;51.952;6.146;2022-12-10T09:34:29;264.20;;;55.85;;
31537;SDS011;18147;51.952;6.146;2022-12-10T09:36:55;227.35;;;54.60;;
31537;SDS011;18147;51.952;6.146;2022-12-10T09:39:20;237.55;;;55.20;;
31537;SDS011;18147;51.952;6.146;2022-12-10T09:42:01;258.27;;;58.47;;
31537;SDS011;18147;51.952;6.146;2022-12-10T09:50:25;247.15;;;56.25;;
31537;SDS011;18147;51.952;6.146;2022-12-10T09:52:56;232.60;;;53.30;;
31537;SDS011;18147;51.952;6.146;2022-12-10T09:55:32;265.45;;;61.00;;
31537;SDS011;18147;51.952;6.146;2022-12-10T09:58:04;200.77;;;50.50;;
31537;SDS011;18147;51.952;6.146;2022-12-10T10:00:38;231.68;;;53.67;;
31537;SDS011;18147;51.952;6.146;2022-12-10T10:03:11;214.82;;;53.03;;
31537;SDS011;18147;51.952;6.146;2022-12-10T10:05:40;202.77;;;51.63;;
31537;SDS011;18147;51.952;6.146;2022-12-10T10:10:55;235.65;;;55.80;;
31537;SDS011;18147;51.952;6.146;2022-12-10T10:13:38;245.10;;;58.53;;
31537;SDS011;18147;51.952;6.146;2022-12-10T10:19:18;213.35;;;53.10;;
31537;SDS011;18147;51.952;6.146;2022-12-10T10:21:51;206.40;;;51.13;;
31537;SDS011;18147;51.952;6.146;2022-12-10T10:24:18;204.32;;;50.70;;
31537;SDS011;18147;51.952;6.146;2022-12-10T10:26:46;206.00;;;54.38;;
31537;SDS011;18147;51.952;6.146;2022-12-10T10:29:13;205.48;;;50.40;;
31537;SDS011;18147;51.952;6.146;2022-12-10T10:31:41;198.68;;;52.60;;
31537;SDS011;18147;51.952;6.146;2022-12-10T10:34:16;196.43;;;50.95;;
31537;SDS011;18147;51.952;6.146;2022-12-10T10:36:43;195.35;;;51.20;;
31537;SDS011;18147;51.952;6.146;2022-12-10T10:41:42;171.10;;;45.75;;
31537;SDS011;18147;51.952;6.146;2022-12-10T10:44:18;191.43;;;46.20;;
31537;SDS011;18147;51.952;6.146;2022-12-10T10:46:46;168.88;;;43.10;;
31537;SDS011;18147;51.952;6.146;2022-12-10T10:49:29;170.98;;;45.03;;
31537;SDS011;18147;51.952;6.146;2022-12-10T10:52:04;176.70;;;46.20;;
31537;SDS011;18147;51.952;6.146;2022-12-10T10:57:03;156.55;;;40.97;;
31537;SDS011;18147;51.952;6.146;2022-12-10T10:59:36;151.07;;;39.65;;
31537;SDS011;18147;51.952;6.146;2022-12-10T11:02:04;148.32;;;40.05;;
31537;SDS011;18147;51.952;6.146;2022-12-10T11:04:47;142.63;;;37.47;;
31537;SDS011;18147;51.952;6.146;2022-12-10T11:09:48;152.88;;;40.20;;
31537;SDS011;18147;51.952;6.146;2022-12-10T11:12:53;140.73;;;38.00;;
31537;SDS011;18147;51.952;6.146;2022-12-10T11:17:48;138.90;;;40.00;;
31537;SDS011;18147;51.952;6.146;2022-12-10T11:20:17;150.20;;;41.17;;
31537;SDS011;18147;51.952;6.146;2022-12-10T11:22:49;158.90;;;40.05;;
31537;SDS011;18147;51.952;6.146;2022-12-10T11:25:17;157.05;;;39.05;;
31537;SDS011;18147;51.952;6.146;2022-12-10T11:30:17;124.95;;;34.15;;
31537;SDS011;18147;51.952;6.146;2022-12-10T11:38:47;136.93;;;37.42;;
31537;SDS011;18147;51.952;6.146;2022-12-10T11:41:33;150.35;;;37.45;;
31537;SDS011;18147;51.952;6.146;2022-12-10T11:49:40;152.45;;;38.20;;
31537;SDS011;18147;51.952;6.146;2022-12-10T11:57:38;148.48;;;39.00;;
31537;SDS011;18147;51.952;6.146;2022-12-10T12:00:21;168.35;;;40.70;;
31537;SDS011;18147;51.952;6.146;2022-12-10T12:03:02;141.32;;;37.58;;
31537;SDS011;18147;51.952;6.146;2022-12-10T12:14:08;175.98;;;40.90;;
31537;SDS011;18147;51.952;6.146;2022-12-10T12:16:44;153.77;;;39.05;;
31537;SDS011;18147;51.952;6.146;2022-12-10T12:19:37;170.18;;;42.55;;
31537;SDS011;18147;51.952;6.146;2022-12-10T12:22:07;152.05;;;42.20;;
31537;SDS011;18147;51.952;6.146;2022-12-10T12:24:40;139.52;;;38.17;;
31537;SDS011;18147;51.952;6.146;2022-12-10T12:27:21;145.52;;;37.97;;
31537;SDS011;18147;51.952;6.146;2022-12-10T12:30:33;140.45;;;37.35;;
31537;SDS011;18147;51.952;6.146;2022-12-10T12:40:53;136.05;;;36.85;;
31537;SDS011;18147;51.952;6.146;2022-12-10T12:43:37;134.82;;;35.30;;
31537;SDS011;18147;51.952;6.146;2022-12-10T12:46:15;147.77;;;37.65;;
31537;SDS011;18147;51.952;6.146;2022-12-10T12:48:50;145.07;;;36.35;;
31537;SDS011;18147;51.952;6.146;2022-12-10T12:51:37;133.05;;;36.35;;
31537;SDS011;18147;51.952;6.146;2022-12-10T12:54:07;147.05;;;38.35;;
31537;SDS011;18147;51.952;6.146;2022-12-10T13:02:02;140.50;;;38.97;;
31537;SDS011;18147;51.952;6.146;2022-12-10T13:04:59;160.50;;;38.88;;
31537;SDS011;18147;51.952;6.146;2022-12-10T13:10:08;137.30;;;37.63;;
31537;SDS011;18147;51.952;6.146;2022-12-10T13:12:46;140.85;;;36.92;;
31537;SDS011;18147;51.952;6.146;2022-12-10T13:15:21;161.98;;;36.40;;
31537;SDS011;18147;51.952;6.146;2022-12-10T13:18:05;162.27;;;37.42;;
31537;SDS011;18147;51.952;6.146;2022-12-10T13:33:52;137.00;;;37.83;;
31537;SDS011;18147;51.952;6.146;2022-12-10T13:41:23;167.38;;;40.30;;
31537;SDS011;18147;51.952;6.146;2022-12-10T13:49:43;142.90;;;34.85;;
31537;SDS011;18147;51.952;6.146;2022-12-10T13:58:22;169.23;;;36.55;;
31537;SDS011;18147;51.952;6.146;2022-12-10T14:01:02;124.05;;;32.85;;
31537;SDS011;18147;51.952;6.146;2022-12-10T14:06:46;145.52;;;33.63;;
31537;SDS011;18147;51.952;6.146;2022-12-10T14:09:15;134.65;;;35.28;;
31537;SDS011;18147;51.952;6.146;2022-12-10T14:11:59;181.60;;;34.47;;
31537;SDS011;18147;51.952;6.146;2022-12-10T14:15:03;159.05;;;38.88;;
31537;SDS011;18147;51.952;6.146;2022-12-10T14:17:24;150.27;;;35.45;;
31537;SDS011;18147;51.952;6.146;2022-12-10T14:19:57;155.23;;;37.95;;
31537;SDS011;18147;51.952;6.146;2022-12-10T14:24:53;164.02;;;38.65;;
31537;SDS011;18147;51.952;6.146;2022-12-10T14:27:25;139.95;;;37.05;;
31537;SDS011;18147;51.952;6.146;2022-12-10T14:29:53;185.05;;;38.72;;
31537;SDS011;18147;51.952;6.146;2022-12-10T14:32:28;174.35;;;41.80;;
31537;SDS011;18147;51.952;6.146;2022-12-10T14:34:56;158.52;;;35.15;;
31537;SDS011;18147;51.952;6.146;2022-12-10T14:37:25;171.82;;;40.75;;
31537;SDS011;18147;51.952;6.146;2022-12-10T14:39:52;142.88;;;36.45;;
31537;SDS011;18147;51.952;6.146;2022-12-10T14:42:18;182.57;;;36.20;;
31537;SDS011;18147;51.952;6.146;2022-12-10T14:44:44;152.15;;;34.72;;
31537;SDS011;18147;51.952;6.146;2022-12-10T14:47:16;183.65;;;36.95;;
31537;SDS011;18147;51.952;6.146;2022-12-10T14:49:44;183.15;;;36.00;;
31537;SDS011;18147;51.952;6.146;2022-12-10T14:52:16;171.65;;;35.28;;
31537;SDS011;18147;51.952;6.146;2022-12-10T14:54:45;170.68;;;35.28;;
31537;SDS011;18147;51.952;6.146;2022-12-10T14:57:24;147.38;;;37.40;;
31537;SDS011;18147;51.952;6.146;2022-12-10T15:02:54;230.23;;;41.28;;
31537;SDS011;18147;51.952;6.146;2022-12-10T15:05:25;154.00;;;33.35;;
31537;SDS011;18147;51.952;6.146;2022-12-10T15:07:55;174.43;;;36.30;;
31537;SDS011;18147;51.952;6.146;2022-12-10T15:10:24;180.85;;;38.65;;
31537;SDS011;18147;51.952;6.146;2022-12-10T15:12:54;162.27;;;38.83;;
31537;SDS011;18147;51.952;6.146;2022-12-10T15:15:25;187.07;;;38.47;;
31537;SDS011;18147;51.952;6.146;2022-12-10T15:18:00;169.15;;;39.33;;
31537;SDS011;18147;51.952;6.146;2022-12-10T15:20:50;228.02;;;40.97;;
31537;SDS011;18147;51.952;6.146;2022-12-10T15:23:18;171.30;;;36.30;;
31537;SDS011;18147;51.952;6.146;2022-12-10T15:28:42;193.23;;;38.63;;
31537;SDS011;18147;51.952;6.146;2022-12-10T15:33:49;233.80;;;40.40;;
31537;SDS011;18147;51.952;6.146;2022-12-10T15:38:45;185.88;;;36.95;;
31537;SDS011;18147;51.952;6.146;2022-12-10T15:41:22;258.65;;;40.65;;
31537;SDS011;18147;51.952;6.146;2022-12-10T15:44:04;181.50;;;35.55;;
31537;SDS011;18147;51.952;6.146;2022-12-10T15:46:51;200.73;;;37.33;;
31537;SDS011;18147;51.952;6.146;2022-12-10T15:49:23;201.30;;;35.72;;
31537;SDS011;18147;51.952;6.146;2022-12-10T15:51:49;229.63;;;40.13;;
31537;SDS011;18147;51.952;6.146;2022-12-10T15:54:22;239.80;;;43.20;;
31537;SDS011;18147;51.952;6.146;2022-12-10T15:56:54;195.82;;;40.85;;
31537;SDS011;18147;51.952;6.146;2022-12-10T15:59:19;192.20;;;35.58;;
31537;SDS011;18147;51.952;6.146;2022-12-10T16:01:45;170.93;;;38.72;;
31537;SDS011;18147;51.952;6.146;2022-12-10T16:04:14;165.32;;;36.38;;
31537;SDS011;18147;51.952;6.146;2022-12-10T16:06:39;181.80;;;36.67;;
31537;SDS011;18147;51.952;6.146;2022-12-10T16:09:05;180.85;;;34.55;;
31537;SDS011;18147;51.952;6.146;2022-12-10T16:11:31;159.52;;;32.63;;
31537;SDS011;18147;51.952;6.146;2022-12-10T16:13:57;177.93;;;33.92;;
31537;SDS011;18147;51.952;6.146;2022-12-10T16:16:23;141.35;;;32.85;;
31537;SDS011;18147;51.952;6.146;2022-12-10T16:18:49;213.95;;;38.00;;
31537;SDS011;18147;51.952;6.146;2022-12-10T16:21:15;217.23;;;38.90;;
31537;SDS011;18147;51.952;6.146;2022-12-10T16:23:40;227.95;;;38.78;;
31537;SDS011;18147;51.952;6.146;2022-12-10T16:26:19;233.00;;;39.88;;
31537;SDS011;18147;51.952;6.146;2022-12-10T16:28:47;221.13;;;39.13;;
31537;SDS011;18147;51.952;6.146;2022-12-10T16:31:14;218.70;;;37.78;;
31537;SDS011;18147;51.952;6.146;2022-12-10T16:33:42;166.48;;;36.17;;